• Join FlightAware (Why Join?)
  • Login
  • US Flag 
04:37PM EST


 

Airport Tracker/Info


-or-


 

Live Flight TrackerFlight Track Log ✈ SKW2988 ✈ 03-May-2013 ✈ KPHX - KABQ

Flight Track Log - Related Links

Times and Time Zones

All times are in EDT time to prevent confusion due to time zone crossing. See the SKW2988 flight status page for this flight to view local times or setup timezone preferences in your user account.

Time Position Orientation Groundspeed Altitude Reporting Facility
EDT Latitude Longitude Course Direction KTS MPH feet Rate Location/Type
12:58AM 33.4333 -111.9333 84° East 200 230 3,400  Level Phoenix TRACON
12:59AM 33.4369 -111.8900 84° East 215 247 4,600 1,740 Climbing Albuquerque Center
01:00AM 33.4731 -111.8131 61° Northeast 276 318 6,300 2,100 Climbing Albuquerque Center
01:01AM 33.5192 -111.7322 56° Northeast 295 339 8,900 2,160 Climbing Albuquerque Center
01:02AM 33.5517 -111.6428 66° East 299 344 10,700 1,800 Climbing Albuquerque Center
01:03AM 33.5892 -111.5414 66° East 332 382 12,600 1,740 Climbing Albuquerque Center
01:04AM 33.6269 -111.4392 66° East 339 390 14,300 1,680 Climbing Albuquerque Center
01:05AM 33.6661 -111.3294 67° East 356 410 16,000 1,740 Climbing Albuquerque Center
01:06AM 33.7142 -111.1972 66° East 363 418 17,900 1,560 Climbing Albuquerque Center
01:07AM 33.7553 -111.0811 67° East 377 434 19,200 1,320 Climbing Albuquerque Center
01:08AM 33.7967 -110.9625 67° East 386 444 20,600 1,260 Climbing Albuquerque Center
01:09AM 33.8397 -110.8417 67° East 393 452 21,800 1,140 Climbing Albuquerque Center
01:10AM 33.8831 -110.7181 67° East 398 458 23,000 1,140 Climbing Albuquerque Center
01:11AM 33.9272 -110.5953 67° East 401 461 24,100 1,020 Climbing Albuquerque Center
01:12AM 33.9714 -110.4681 67° East 408 470 25,100 840 Climbing Albuquerque Center
01:13AM 34.0197 -110.3314 67° East 415 478 25,900 720 Climbing Albuquerque Center
01:14AM 34.0644 -110.2028 67° East 419 482 26,600 540 Climbing Albuquerque Center
01:15AM 34.1106 -110.0686 67° East 424 488 27,000 180 Climbing Albuquerque Center
01:16AM 34.1581 -109.9364 67° East 440 506 27,000  Level Albuquerque Center
01:17AM 34.2047 -109.7967 68° East 458 527 27,000  Level Albuquerque Center
01:18AM 34.2597 -109.6339 68° East 467 537 27,000  Level Albuquerque Center
01:19AM 34.3067 -109.4956 68° East 467 537 27,000  Level Albuquerque Center
01:20AM 34.3533 -109.3578 68° East 464 534 27,000  Level Albuquerque Center
01:21AM 34.4083 -109.1953 68° East 468 539 27,000  Level Albuquerque Center
01:22AM 34.4367 -109.0519 76° East 464 534 27,000  Level Albuquerque Center
01:23AM 34.4550 -108.9047 81° East 464 534 27,000  Level Albuquerque Center
01:24AM 34.4767 -108.7339 81° East 462 532 27,000  Level Albuquerque Center
01:25AM 34.4956 -108.5850 81° East 464 534 27,000  Level Albuquerque Center
01:26AM 34.5183 -108.4261 80° East 467 537 27,000  Level Albuquerque Center
01:27AM 34.5453 -108.2747 78° East 464 534 27,000 -780 Level Albuquerque Center
01:28AM 34.5697 -108.1236 79° East 459 528 25,500 -1,740 Descending Albuquerque Center
01:29AM 34.5950 -107.9761 78° East 451 519 23,500 -2,040 Descending Albuquerque Center
01:30AM 34.6222 -107.8219 78° East 461 531 21,500 -2,040 Descending Albuquerque Center
01:31AM 34.6750 -107.6864 65° Northeast 447 514 19,500 -1,980 Descending Albuquerque Center
01:32AM 34.7289 -107.5625 62° Northeast 424 488 17,600 -1,800 Descending Albuquerque Center
01:33AM 34.7819 -107.4397 62° Northeast 396 456 16,100 -1,140 Descending Albuquerque Center
01:33AM 34.8097 -107.3761 62° Northeast 393 452 16,000 -120 Descending Albuquerque Center
01:34AM 34.8297 -107.3261 64° Northeast 395 455 16,000 -240 Level Albuquerque Center
01:34AM 34.8492 -107.2578 71° East 382 440 15,800 -900 Descending Albuquerque Center
01:35AM 34.8581 -107.2047 78° East 381 438 15,100 -1,620 Descending Albuquerque Center
01:35AM 34.8694 -107.1392 78° East 346 398 14,200 -1,500 Descending Albuquerque Center
01:36AM 34.8703 -107.0917 89° East 348 400 13,600 -1,380 Descending Albuquerque Center
01:36AM 34.8739 -107.0397 85° East 312 359 13,000 -1,320 Descending Albuquerque Center
01:37AM 34.8756 -106.9853 88° East 332 382 12,300 -1,260 Descending Albuquerque Center
01:37AM 34.8789 -106.9325 86° East 287 330 11,600 -1,200 Descending Albuquerque Center
01:38AM 34.8814 -106.8961 85° East 291 335 11,100 -1,380 Descending Albuquerque Center
01:38AM 34.8881 -106.8497 80° East 240 276 10,200 -1,740 Descending Albuquerque Center
01:39AM 34.8892 -106.8164 88° East 259 298 9,400 -2,040 Descending Albuquerque Center
01:39AM 34.8997 -106.7822 69° East 226 260 8,400 -1,980 Descending Albuquerque Center
01:40AM 34.9286 -106.7428 48° Northeast 239 275 7,400 -1,020 Descending Albuquerque Center
01:40AM 34.9414 -106.7275 44° Northeast 219 252 7,400 -600 Level Albuquerque Center
01:41AM 34.9675 -106.6953 45° Northeast 217 250 6,800 -900 Descending Albuquerque Center
01:41AM 34.9808 -106.6836 36° Northeast 184 212 6,500 -900 Descending Albuquerque Center
01:42AM 35.0025 -106.6519 50° Northeast 196 226 5,900 -1,020 Descending Albuquerque Center
01:42AM 35.0175 -106.6378 38° Northeast 174 200 5,500 -540 Descending Albuquerque Center
01:43AM 35.0328 -106.6150 51° Northeast 187 215 5,400 -180 Descending Albuquerque Center
01:45AM 35.0333 -106.6000 59° Northeast  Level FlightAware Approximate